logo
Search for airport 
image banner adimage banner adimage banner ad
image banner ad

MMTC - Torreon Aeropuerto Internacional

Located in Torreon, Mexico

ICAO - MMTC, IATA - TRC

Data provided by Airmate  

General information

Coordinates: N25°34'6" W103°24'38"
Elevation is 3688 feet MSL.
 
View others Airports in Coahuila

Operational data

Special qualification required
Current time UTC:
Current local time:
Weather
TAF: TAF MMTC 180536Z 1806/1906 30010KT P6SM SCT100 BKN230 FM181200 30005KT P6SM BKN230 FM182000 09005KT P6SM BKN230 FM190000 36010KT P6SM BKN230
View NOTAMs / SUP AIP / TFR affecting this airport [VIEW]
Communications frequencies: [VIEW]

Runways:

RWY identifierQFULength (ft)Width (ft)SurfaceLDA (ft)
0890°481398ASP
26270°481398ASP
13135°9039148UNK
31315°9039148UNK

Airport contact information

Address: Torreon Mexico

Satellite view of MMTC